createdAt,value
2023-01-29T00:02:05.577Z,101670.25
2023-01-29T00:04:33.083Z,101666.75
2023-01-29T00:07:00.652Z,101629.34
2023-01-29T00:09:28.722Z,101655.31
2023-01-29T00:11:57.406Z,101649.16
2023-01-29T00:14:26.266Z,101663.22
2023-01-29T00:16:53.652Z,101653.56
2023-01-29T00:19:21.089Z,101650.03
2023-01-29T00:21:48.473Z,101645.66
2023-01-29T00:24:15.904Z,101643.00
2023-01-29T00:26:43.314Z,101632.47
2023-01-29T00:29:12.010Z,101617.81
2023-01-29T00:31:39.485Z,101636.00
2023-01-29T00:34:07.075Z,101636.88
2023-01-29T00:36:34.446Z,101634.25
2023-01-29T00:39:03.432Z,101591.59
2023-01-29T00:41:49.454Z,101609.88
2023-01-29T00:44:36.004Z,101629.94
2023-01-29T00:47:03.397Z,101628.13
2023-01-29T00:49:31.108Z,101634.28
2023-01-29T00:52:16.343Z,101636.06
2023-01-29T00:54:43.727Z,101632.53
2023-01-29T00:57:11.247Z,101641.34
2023-01-29T00:59:39.987Z,101635.19
2023-01-29T01:02:24.787Z,101636.06
2023-01-29T01:04:52.188Z,101643.06
2023-01-29T01:07:19.563Z,101625.56
2023-01-29T01:10:04.355Z,101644.81
2023-01-29T01:12:31.788Z,101648.34
2023-01-29T01:15:00.495Z,101645.66
2023-01-29T01:17:27.887Z,101643.13
2023-01-29T01:19:55.280Z,101650.97
2023-01-29T01:22:22.661Z,101352.78
2023-01-29T01:24:50.280Z,101635.16
2023-01-29T01:27:19.446Z,101622.88
2023-01-29T01:29:46.950Z,101618.50
2023-01-29T01:32:15.886Z,101620.25
2023-01-29T01:34:45.204Z,101617.63
2023-01-29T01:37:12.616Z,101621.97
2023-01-29T01:39:39.987Z,101614.97
2023-01-29T01:42:07.519Z,101566.19
2023-01-29T01:44:55.671Z,101606.13
2023-01-29T01:47:27.450Z,101601.75
2023-01-29T01:49:54.837Z,101598.25
2023-01-29T01:52:22.215Z,101601.78
2023-01-29T01:54:49.773Z,101573.97
2023-01-29T01:57:18.258Z,101602.66
2023-01-29T01:59:48.324Z,101548.63
2023-01-29T02:02:33.282Z,101582.53
2023-01-29T02:05:19.896Z,101596.50
2023-01-29T02:08:06.112Z,101593.00
2023-01-29T02:10:37.586Z,101598.25
2023-01-29T02:13:05.047Z,101593.88
2023-01-29T02:15:32.465Z,101579.88
2023-01-29T02:17:59.916Z,101546.94
2023-01-29T02:20:29.664Z,101579.13
2023-01-29T02:23:31.529Z,101583.63
2023-01-29T02:26:05.285Z,101595.59
2023-01-29T02:28:36.785Z,101575.00
2023-01-29T02:31:09.324Z,101602.66
2023-01-29T02:33:42.613Z,101606.13
2023-01-29T02:36:15.630Z,101612.31
2023-01-29T02:38:46.674Z,101606.13
2023-01-29T02:41:15.079Z,101523.50
2023-01-29T02:43:46.309Z,101597.38
2023-01-29T02:46:17.767Z,101599.09
2023-01-29T02:48:46.806Z,101607.91
2023-01-29T02:51:19.071Z,101567.88
2023-01-29T02:53:50.532Z,101617.56
2023-01-29T02:56:18.820Z,101621.09
2023-01-29T02:58:48.749Z,101622.84
2023-01-29T03:01:18.958Z,101611.41
2023-01-29T03:03:46.839Z,101622.00
2023-01-29T03:06:18.193Z,101545.47
2023-01-29T03:08:49.987Z,101557.66
2023-01-29T03:11:17.613Z,101620.25
2023-01-29T03:13:48.075Z,101612.44
2023-01-29T03:16:19.334Z,101621.97
2023-01-29T03:18:50.889Z,101614.97
2023-01-29T03:21:38.692Z,101589.00
2023-01-29T03:24:24.496Z,101611.44
2023-01-29T03:27:09.256Z,101553.19
2023-01-29T03:29:55.851Z,101599.16
2023-01-29T03:32:23.805Z,101593.88
2023-01-29T03:34:53.145Z,101588.56
2023-01-29T03:37:22.336Z,101534.78
2023-01-29T03:39:49.709Z,101585.06
2023-01-29T03:42:20.041Z,101582.38
2023-01-29T03:44:54.181Z,101579.78
2023-01-29T03:47:22.938Z,101480.78
2023-01-29T03:49:57.232Z,101585.00
2023-01-29T03:52:26.249Z,101583.28
2023-01-29T03:54:57.349Z,101588.53
2023-01-29T03:57:27.855Z,101580.72
2023-01-29T03:59:58.695Z,101585.03
2023-01-29T04:02:28.475Z,101586.81
2023-01-29T04:04:57.265Z,101580.63
2023-01-29T04:07:24.714Z,101572.72
2023-01-29T04:09:53.389Z,101573.59
2023-01-29T04:12:22.401Z,101570.09
2023-01-29T04:14:49.785Z,101566.53
2023-01-29T04:17:19.927Z,101570.06
2023-01-29T04:19:47.820Z,101562.19
2023-01-29T04:22:16.972Z,101549.03
2023-01-29T04:24:44.356Z,101538.47
2023-01-29T04:27:26.910Z,101535.81
2023-01-29T04:30:01.559Z,101514.97
2023-01-29T04:32:33.078Z,101527.00
2023-01-29T04:35:09.159Z,101511.16
2023-01-29T04:37:38.353Z,101504.19
2023-01-29T04:40:13.216Z,101499.78
2023-01-29T04:42:43.780Z,101408.53
2023-01-29T04:45:15.974Z,101436.06
2023-01-29T04:47:48.072Z,101407.41
2023-01-29T04:50:16.893Z,101365.63
2023-01-29T04:52:48.461Z,101466.34
2023-01-29T04:55:18.009Z,101468.13
2023-01-29T04:57:48.283Z,101390.72
2023-01-29T05:00:18.794Z,101389.91
2023-01-29T05:02:47.705Z,101441.16
2023-01-29T05:05:15.465Z,101396.78
2023-01-29T05:07:42.834Z,101450.50
2023-01-29T05:10:10.913Z,101441.09
2023-01-29T05:12:38.738Z,101362.03
2023-01-29T05:15:10.098Z,101461.91
2023-01-29T05:17:37.483Z,101457.56
2023-01-29T05:20:07.446Z,101469.88
2023-01-29T05:22:34.901Z,101464.56
2023-01-29T05:25:02.261Z,101467.19
2023-01-29T05:27:48.445Z,101461.91
2023-01-29T05:30:16.427Z,101473.34
2023-01-29T05:32:43.997Z,101461.91
2023-01-29T05:35:12.885Z,101473.34
2023-01-29T05:37:40.256Z,101476.00
2023-01-29T05:40:09.520Z,101482.13
2023-01-29T05:42:36.961Z,101481.25
2023-01-29T05:45:04.914Z,101483.03
2023-01-29T05:47:32.304Z,101477.75
2023-01-29T05:49:59.691Z,101473.44
2023-01-29T05:52:28.413Z,101472.53
2023-01-29T05:54:55.822Z,101480.38
2023-01-29T05:57:23.225Z,101494.44
2023-01-29T05:59:50.603Z,101509.34
2023-01-29T06:02:17.977Z,101510.28
2023-01-29T06:04:45.337Z,101512.88
2023-01-29T06:07:12.734Z,101519.88
2023-01-29T06:09:41.437Z,101519.00
2023-01-29T06:12:08.828Z,101513.72
2023-01-29T06:14:36.214Z,101506.72
2023-01-29T06:17:04.762Z,101496.16
2023-01-29T06:19:32.145Z,101503.19
2023-01-29T06:21:59.728Z,101518.16
2023-01-29T06:24:27.164Z,101522.53
2023-01-29T06:26:55.906Z,101508.44
2023-01-29T06:29:23.289Z,101515.50
2023-01-29T06:31:50.759Z,101509.38
2023-01-29T06:34:18.633Z,101526.88
2023-01-29T06:36:46.022Z,101516.31
2023-01-29T06:39:13.483Z,101513.69
2023-01-29T06:41:40.892Z,101521.59
2023-01-29T06:44:09.607Z,101519.88
2023-01-29T06:46:37.007Z,101510.22
2023-01-29T06:49:04.396Z,101512.84
2023-01-29T06:51:31.799Z,101505.78
2023-01-29T06:53:59.183Z,101512.81
2023-01-29T06:56:26.641Z,101513.69
2023-01-29T06:58:54.062Z,101515.44
2023-01-29T07:01:35.003Z,101521.56
2023-01-29T07:04:03.112Z,101523.34
2023-01-29T07:06:30.705Z,101478.31
2023-01-29T07:08:58.149Z,101528.63
2023-01-29T07:11:25.570Z,101505.16
2023-01-29T07:13:53.017Z,101521.56
2023-01-29T07:16:20.598Z,101520.72
2023-01-29T07:18:49.340Z,101539.19
2023-01-29T07:21:16.741Z,101535.63
2023-01-29T07:23:44.253Z,101537.34
2023-01-29T07:26:11.685Z,101545.25
2023-01-29T07:28:39.227Z,101516.59
2023-01-29T07:31:06.879Z,101529.44
2023-01-29T07:33:34.401Z,101524.16
2023-01-29T07:36:03.115Z,101518.94
2023-01-29T07:38:30.495Z,101520.72
2023-01-29T07:40:57.879Z,101501.59
2023-01-29T07:43:25.643Z,101530.38
2023-01-29T07:45:53.066Z,101530.34
2023-01-29T07:48:20.496Z,101547.91
2023-01-29T07:50:55.147Z,101490.63
2023-01-29T07:53:23.837Z,101525.09
2023-01-29T07:55:51.308Z,101479.84
2023-01-29T07:58:18.731Z,101497.00
2023-01-29T08:00:46.247Z,101495.28
2023-01-29T08:03:15.972Z,101495.22
2023-01-29T08:08:07.477Z,101511.09
2023-01-29T08:10:36.565Z,101502.31
2023-01-29T08:13:04.119Z,101487.31
2023-01-29T08:15:31.548Z,101403.03
2023-01-29T08:17:58.922Z,101474.13
2023-01-29T08:20:26.559Z,101474.13
2023-01-29T08:22:59.816Z,101387.28
2023-01-29T08:25:27.553Z,101451.31
2023-01-29T08:27:57.070Z,101449.56
2023-01-29T08:30:24.580Z,101456.59
2023-01-29T08:32:51.993Z,101421.09
2023-01-29T08:35:19.608Z,101463.59
2023-01-29T08:37:53.674Z,101376.75
2023-01-29T08:40:21.087Z,101470.63
2023-01-29T08:42:48.527Z,101469.75
2023-01-29T08:45:17.551Z,101460.06
2023-01-29T08:47:47.957Z,101460.06
2023-01-29T08:50:15.807Z,101400.22
2023-01-29T08:52:43.431Z,101460.00
2023-01-29T08:55:11.015Z,101409.47
2023-01-29T08:57:38.497Z,101360.97
2023-01-29T09:00:06.906Z,101467.88
2023-01-29T09:02:35.660Z,101395.00
2023-01-29T09:05:03.049Z,101460.88
2023-01-29T09:07:30.524Z,101447.94
2023-01-29T09:09:57.913Z,101466.13
2023-01-29T09:12:25.299Z,101459.09
2023-01-29T09:14:52.693Z,101463.44
2023-01-29T09:17:20.083Z,101446.94
2023-01-29T09:19:48.784Z,101465.22
2023-01-29T09:22:16.164Z,101453.75
2023-01-29T09:24:43.538Z,101458.13
2023-01-29T09:27:10.937Z,101458.06
2023-01-29T09:29:38.301Z,101452.81
2023-01-29T09:32:06.883Z,101450.16
2023-01-29T09:34:34.547Z,101391.16
2023-01-29T09:37:03.265Z,101449.34
2023-01-29T09:39:30.672Z,101451.88
2023-01-29T09:42:00.898Z,101453.63
2023-01-29T09:44:29.937Z,101450.09
2023-01-29T09:46:57.358Z,101451.84
2023-01-29T09:49:26.296Z,101443.91
2023-01-29T09:51:54.829Z,101381.34
2023-01-29T09:54:25.377Z,101436.81
2023-01-29T09:56:54.640Z,101391.72
2023-01-29T09:59:22.919Z,101428.00
2023-01-29T10:01:54.978Z,101427.97
2023-01-29T10:04:50.453Z,101431.44
2023-01-29T10:07:38.635Z,101422.69
2023-01-29T10:10:15.751Z,101370.56
2023-01-29T10:13:04.507Z,101359.19
2023-01-29T10:15:41.387Z,101363.59
2023-01-29T10:18:24.962Z,101419.94
2023-01-29T10:20:56.561Z,101411.09
2023-01-29T10:23:25.087Z,101417.22
2023-01-29T10:25:53.962Z,101403.16
2023-01-29T10:28:22.304Z,101361.44
2023-01-29T10:30:50.525Z,101387.25
2023-01-29T10:33:25.926Z,101398.69
2023-01-29T10:35:56.728Z,101379.34
2023-01-29T10:38:29.570Z,101385.47
2023-01-29T10:41:01.782Z,101385.47
2023-01-29T10:43:32.291Z,101273.50
2023-01-29T10:46:04.421Z,101374.00
2023-01-29T10:48:45.388Z,101363.44
2023-01-29T10:51:20.295Z,101365.16
2023-01-29T10:53:54.247Z,101368.72
2023-01-29T10:56:29.814Z,101357.22
2023-01-29T10:58:59.013Z,101354.03
2023-01-29T11:01:27.109Z,101366.91
2023-01-29T11:03:59.179Z,101365.09
2023-01-29T11:06:29.728Z,101361.59
2023-01-29T11:08:59.886Z,101288.78
2023-01-29T11:11:31.714Z,101357.25
2023-01-29T11:14:01.133Z,101346.66
2023-01-29T11:16:29.940Z,101338.66
2023-01-29T11:18:58.499Z,101333.47
2023-01-29T11:21:26.358Z,101331.63
2023-01-29T11:24:06.571Z,101327.19
2023-01-29T11:26:36.432Z,101314.09
2023-01-29T11:29:03.887Z,101312.31
2023-01-29T11:31:36.996Z,101236.75
2023-01-29T11:34:06.929Z,101300.88
2023-01-29T11:36:36.995Z,101302.59
2023-01-29T11:39:16.098Z,101302.56
2023-01-29T11:41:45.791Z,101283.19
2023-01-29T11:44:23.150Z,101281.41
2023-01-29T11:46:50.566Z,101265.59
2023-01-29T11:49:32.902Z,101176.25
2023-01-29T11:52:01.840Z,101267.31
2023-01-29T11:54:30.500Z,101168.53
2023-01-29T11:56:59.201Z,101263.88
2023-01-29T11:59:42.256Z,101183.19
2023-01-29T12:02:20.723Z,101269.91
2023-01-29T12:04:48.126Z,101254.09
2023-01-29T12:07:16.345Z,101250.59
2023-01-29T12:09:50.366Z,101253.19
2023-01-29T12:12:28.382Z,101243.59
2023-01-29T12:15:11.271Z,101246.16
2023-01-29T12:17:38.907Z,101251.41
2023-01-29T12:20:10.125Z,101182.00
2023-01-29T12:22:41.010Z,101235.56
2023-01-29T12:25:09.230Z,101240.00
2023-01-29T12:27:39.853Z,101229.44
2023-01-29T12:30:11.989Z,101225.00
2023-01-29T12:32:42.035Z,101214.53
2023-01-29T12:35:13.100Z,101210.94
2023-01-29T12:37:44.387Z,101202.97
2023-01-29T12:40:14.303Z,101195.91
2023-01-29T12:42:44.015Z,101191.53
2023-01-29T12:45:13.606Z,101186.25
2023-01-29T12:47:42.712Z,101184.44
2023-01-29T12:50:15.803Z,101167.69
2023-01-29T12:52:45.082Z,101172.09
2023-01-29T12:55:14.014Z,101041.31
2023-01-29T12:57:43.648Z,101143.25
2023-01-29T13:00:12.643Z,101145.75
2023-01-29T13:02:40.993Z,101145.75
2023-01-29T13:05:16.367Z,101147.50
2023-01-29T13:07:46.041Z,101056.56
2023-01-29T13:10:15.103Z,101141.31
2023-01-29T13:12:49.879Z,101147.41
2023-01-29T13:15:22.855Z,101143.03
2023-01-29T13:17:51.878Z,101063.56
2023-01-29T13:20:21.954Z,101149.19
2023-01-29T13:22:49.335Z,101152.75
2023-01-29T13:25:17.506Z,101162.38
2023-01-29T13:27:47.646Z,101154.50
2023-01-29T13:30:29.912Z,101152.78
2023-01-29T13:33:08.770Z,101013.50
2023-01-29T13:35:37.956Z,101148.31
2023-01-29T13:38:05.342Z,101139.56
2023-01-29T13:40:34.356Z,101143.03
2023-01-29T13:43:03.033Z,101127.59
2023-01-29T13:45:34.851Z,101137.75
2023-01-29T13:48:10.123Z,101070.25
2023-01-29T13:50:39.185Z,101035.75
2023-01-29T13:53:08.149Z,101052.00
2023-01-29T13:55:36.404Z,101130.75
2023-01-29T13:58:05.275Z,101124.56
2023-01-29T14:01:01.133Z,101124.66
2023-01-29T14:04:04.501Z,101124.56
2023-01-29T14:06:40.455Z,101115.75
2023-01-29T14:09:35.373Z,101122.75
2023-01-29T14:12:02.786Z,101121.88
2023-01-29T14:15:05.627Z,101118.34
2023-01-29T14:17:32.993Z,101113.13
2023-01-29T14:20:02.687Z,101091.25
2023-01-29T14:22:30.347Z,101091.53
2023-01-29T14:24:58.979Z,101105.25
2023-01-29T14:27:26.381Z,101108.72
2023-01-29T14:29:59.331Z,101110.56
2023-01-29T14:32:26.703Z,101134.31
2023-01-29T14:34:56.488Z,101098.59
2023-01-29T14:37:28.274Z,101099.47
2023-01-29T14:39:57.446Z,101100.91
2023-01-29T14:42:26.792Z,101032.66
2023-01-29T14:45:00.436Z,101095.56
2023-01-29T14:47:55.263Z,101092.88
2023-01-29T14:50:54.976Z,101044.44
2023-01-29T14:53:40.173Z,100993.53
2023-01-29T14:56:12.410Z,101061.94
2023-01-29T14:58:42.975Z,101094.81
2023-01-29T15:01:18.104Z,101097.47
2023-01-29T15:03:48.897Z,101093.94
2023-01-29T15:06:18.724Z,101094.81
2023-01-29T15:08:48.297Z,101046.28
2023-01-29T15:11:37.145Z,101003.00
2023-01-29T15:14:27.298Z,101057.50
2023-01-29T15:17:03.045Z,100968.38
2023-01-29T15:19:32.685Z,101015.03
2023-01-29T15:22:04.165Z,101085.97
2023-01-29T15:24:31.534Z,101086.91
2023-01-29T15:26:58.930Z,101088.72
2023-01-29T15:29:27.105Z,101089.53
2023-01-29T15:31:54.629Z,101068.69
2023-01-29T15:34:23.393Z,101074.66
2023-01-29T15:36:51.088Z,101076.34
2023-01-29T15:39:18.809Z,100938.88
2023-01-29T15:41:46.460Z,101072.84
2023-01-29T15:44:16.176Z,101077.16
2023-01-29T15:46:44.059Z,101068.38
2023-01-29T15:49:16.100Z,101068.34
2023-01-29T15:51:44.804Z,101068.34
2023-01-29T15:54:15.708Z,101066.59
2023-01-29T15:56:45.319Z,101006.19
2023-01-29T15:59:16.202Z,101055.25
2023-01-29T16:01:43.744Z,101052.59
2023-01-29T16:04:12.750Z,101054.31
2023-01-29T16:06:41.458Z,101046.41
2023-01-29T16:09:11.600Z,101034.97
2023-01-29T16:11:40.164Z,101040.25
2023-01-29T16:14:07.778Z,101033.31
2023-01-29T16:16:35.575Z,101021.03
2023-01-29T16:19:02.996Z,101022.69
2023-01-29T16:21:31.410Z,101038.50
2023-01-29T16:23:59.779Z,101014.00
2023-01-29T16:26:29.416Z,100974.22
2023-01-29T16:28:57.153Z,101010.38
2023-01-29T16:31:26.534Z,100959.47
2023-01-29T16:33:54.156Z,100963.88
2023-01-29T16:36:22.326Z,101011.28
2023-01-29T16:38:51.175Z,100961.03
2023-01-29T16:41:31.087Z,101002.50
2023-01-29T16:44:01.566Z,100993.72
2023-01-29T16:46:36.056Z,100988.44
2023-01-29T16:49:03.614Z,100982.34
2023-01-29T16:51:31.498Z,100984.09
2023-01-29T16:54:00.263Z,100984.09
2023-01-29T16:56:30.690Z,100988.50
2023-01-29T16:58:58.124Z,100962.25
2023-01-29T17:01:25.876Z,100937.25
2023-01-29T17:04:05.642Z,100960.41
2023-01-29T17:06:33.072Z,100951.66
2023-01-29T17:09:00.607Z,100926.53
2023-01-29T17:11:32.901Z,100891.88
2023-01-29T17:14:00.297Z,100926.19
2023-01-29T17:16:29.302Z,100864.00
2023-01-29T17:18:56.779Z,100918.28
2023-01-29T17:21:24.427Z,100870.00
2023-01-29T17:23:51.951Z,100917.41
2023-01-29T17:26:19.438Z,100911.31
2023-01-29T17:28:49.192Z,100922.72
2023-01-29T17:31:16.668Z,100925.41
2023-01-29T17:33:44.175Z,100902.53
2023-01-29T17:36:13.212Z,100912.22
2023-01-29T17:38:40.646Z,100915.69
2023-01-29T17:41:09.116Z,100892.31
2023-01-29T17:43:36.513Z,100916.53
2023-01-29T17:46:05.537Z,100916.56
2023-01-29T17:48:33.004Z,100915.72
2023-01-29T17:51:01.909Z,100920.09
2023-01-29T17:53:44.236Z,100911.34
2023-01-29T17:56:19.560Z,100913.13
2023-01-29T17:58:46.972Z,100898.44
2023-01-29T18:01:15.714Z,100910.69
2023-01-29T18:03:43.150Z,100914.03
2023-01-29T18:06:10.732Z,100841.53
2023-01-29T18:08:38.489Z,100914.03
2023-01-29T18:11:06.090Z,100911.34
2023-01-29T18:13:35.286Z,100911.41
2023-01-29T18:16:02.699Z,100909.69
2023-01-29T18:18:31.480Z,100905.28
2023-01-29T18:20:58.859Z,100902.63
2023-01-29T18:23:26.283Z,100903.63
2023-01-29T18:25:57.422Z,100901.75
2023-01-29T18:28:24.948Z,100892.97
2023-01-29T18:30:52.548Z,100817.00
2023-01-29T18:33:19.929Z,100886.81
2023-01-29T18:35:48.927Z,100805.72
2023-01-29T18:38:16.486Z,100885.84
2023-01-29T18:40:43.946Z,100875.28
2023-01-29T18:43:11.349Z,100870.00
2023-01-29T18:45:38.763Z,100867.41
2023-01-29T18:48:06.598Z,100859.66
2023-01-29T18:50:34.023Z,100858.63
2023-01-29T18:53:04.145Z,100852.47
2023-01-29T18:55:31.396Z,100854.28
2023-01-29T18:58:27.426Z,100843.78
2023-01-29T19:00:48.740Z,100847.28
2023-01-29T19:03:16.147Z,100837.53
2023-01-29T19:05:43.593Z,100837.53
2023-01-29T19:08:12.285Z,100832.22
2023-01-29T19:10:40.442Z,100825.16
2023-01-29T19:13:07.879Z,100796.75
2023-01-29T19:15:35.333Z,100823.41
2023-01-29T19:18:04.062Z,100811.16
2023-01-29T19:20:31.609Z,100816.31
2023-01-29T19:22:59.438Z,100810.25
2023-01-29T19:25:28.227Z,100813.75
2023-01-29T19:27:55.594Z,100805.00
2023-01-29T19:30:22.992Z,100794.44
2023-01-29T19:32:50.590Z,100789.09
2023-01-29T19:35:18.295Z,100781.19
2023-01-29T19:37:46.197Z,100781.19
2023-01-29T19:40:14.715Z,100782.03
2023-01-29T19:42:43.407Z,100769.72
2023-01-29T19:45:11.104Z,100764.44
2023-01-29T19:47:41.666Z,100763.56
2023-01-29T19:50:10.471Z,100746.19
2023-01-29T19:52:50.866Z,100743.34
2023-01-29T19:55:19.673Z,100670.06
2023-01-29T19:57:48.529Z,100744.25
2023-01-29T20:00:17.999Z,100738.13
2023-01-29T20:02:45.374Z,100728.53
2023-01-29T20:05:12.993Z,100729.38
2023-01-29T20:07:42.166Z,100737.28
2023-01-29T20:10:11.390Z,100730.25
2023-01-29T20:12:38.852Z,100729.28
2023-01-29T20:15:08.531Z,100727.50
2023-01-29T20:17:35.909Z,100716.09
2023-01-29T20:20:03.754Z,100692.34
2023-01-29T20:22:31.239Z,100680.94
2023-01-29T20:24:58.623Z,100660.69
2023-01-29T20:27:26.004Z,100653.66
2023-01-29T20:29:53.462Z,100651.00
2023-01-29T20:32:22.190Z,100651.88
2023-01-29T20:34:51.958Z,100631.78
2023-01-29T20:37:19.662Z,100635.19
2023-01-29T20:39:47.122Z,100641.31
2023-01-29T20:42:14.537Z,100643.97
2023-01-29T20:44:41.918Z,100640.41
2023-01-29T20:47:09.391Z,100628.91
2023-01-29T20:49:38.098Z,100614.84
2023-01-29T20:52:06.597Z,100614.84
2023-01-29T20:54:34.399Z,100602.53
2023-01-29T20:57:01.993Z,100588.47
2023-01-29T20:59:29.825Z,100586.66
2023-01-29T21:01:57.356Z,100576.16
2023-01-29T21:04:24.823Z,100577.03
2023-01-29T21:06:53.549Z,100577.97
2023-01-29T21:09:21.019Z,100578.81
2023-01-29T21:11:48.436Z,100582.31
2023-01-29T21:14:15.817Z,100586.66
2023-01-29T21:16:43.326Z,100589.34
2023-01-29T21:19:10.857Z,100582.25
2023-01-29T21:21:38.238Z,100596.38
2023-01-29T21:24:08.744Z,100573.56
2023-01-29T21:26:38.111Z,100549.44
2023-01-29T21:29:05.586Z,100557.69
2023-01-29T21:31:33.391Z,100554.22
2023-01-29T21:34:01.487Z,100557.69
2023-01-29T21:36:28.917Z,100560.38
2023-01-29T21:38:56.781Z,100565.59
2023-01-29T21:41:45.576Z,100552.47
2023-01-29T21:44:12.078Z,100487.91
2023-01-29T21:46:39.467Z,100539.22
2023-01-29T21:49:06.958Z,100540.97
2023-01-29T21:51:34.611Z,100540.03
2023-01-29T21:54:03.482Z,100540.84
2023-01-29T21:56:32.258Z,100540.84
2023-01-29T21:59:00.658Z,100525.97
2023-01-29T22:01:37.831Z,100538.28
2023-01-29T22:04:07.539Z,100533.06
2023-01-29T22:06:34.959Z,100546.25
2023-01-29T22:09:02.344Z,100554.16
2023-01-29T22:11:29.824Z,100548.88
2023-01-29T22:13:58.527Z,100539.16
2023-01-29T22:16:25.988Z,100533.28
2023-01-29T22:18:53.357Z,100534.81
2023-01-29T22:21:20.782Z,100525.97
2023-01-29T22:23:48.978Z,100465.00
2023-01-29T22:26:16.482Z,100466.41
2023-01-29T22:28:43.876Z,100509.25
2023-01-29T22:31:12.712Z,100515.38
2023-01-29T22:33:40.226Z,100519.88
2023-01-29T22:36:08.525Z,100519.88
2023-01-29T22:38:36.012Z,100530.47
2023-01-29T22:41:04.542Z,100518.19
2023-01-29T22:43:31.943Z,100516.47
2023-01-29T22:45:59.387Z,100497.13
2023-01-29T22:48:28.502Z,100511.25
2023-01-29T22:51:09.787Z,100505.88
2023-01-29T22:53:37.801Z,100490.97
2023-01-29T22:56:05.809Z,100481.31
2023-01-29T22:58:33.228Z,100494.50
2023-01-29T23:01:00.609Z,100481.31
2023-01-29T23:03:29.365Z,100474.31
2023-01-29T23:05:56.768Z,100476.97
2023-01-29T23:08:24.295Z,100487.50
2023-01-29T23:10:51.690Z,100481.38
2023-01-29T23:13:19.357Z,100472.63
2023-01-29T23:15:46.769Z,100463.84
2023-01-29T23:18:14.157Z,100455.97
2023-01-29T23:20:44.078Z,100443.66
2023-01-29T23:23:11.456Z,100426.91
2023-01-29T23:26:07.938Z,100412.72
2023-01-29T23:28:35.323Z,100396.13
2023-01-29T23:31:02.995Z,100371.47
2023-01-29T23:33:30.447Z,100355.63
2023-01-29T23:35:59.182Z,100342.44
2023-01-29T23:38:26.559Z,100331.16
2023-01-29T23:40:57.760Z,100341.69
2023-01-29T23:43:25.155Z,100315.50
2023-01-29T23:45:52.639Z,100343.50
2023-01-29T23:48:20.295Z,100346.97
2023-01-29T23:50:47.662Z,100352.25
2023-01-29T23:53:16.358Z,100360.09
2023-01-29T23:55:44.487Z,100367.16
2023-01-29T23:58:11.885Z,100344.22
